createdAt,value
2023-01-13T00:01:12.199Z,8.02
2023-01-13T00:03:40.203Z,7.93
2023-01-13T00:06:12.402Z,7.87
2023-01-13T00:08:38.944Z,7.88
2023-01-13T00:11:05.610Z,7.82
2023-01-13T00:13:35.543Z,7.69
2023-01-13T00:16:07.717Z,7.68
2023-01-13T00:18:36.914Z,7.60
2023-01-13T00:21:09.928Z,7.56
2023-01-13T00:23:36.542Z,7.57
2023-01-13T00:26:10.418Z,7.52
2023-01-13T00:28:38.133Z,7.42
2023-01-13T00:31:19.244Z,7.35
2023-01-13T00:33:46.369Z,7.33
2023-01-13T00:36:14.751Z,7.26
2023-01-13T00:38:43.041Z,7.23
2023-01-13T00:41:15.875Z,7.29
2023-01-13T00:43:42.959Z,7.34
2023-01-13T00:46:11.379Z,7.36
2023-01-13T00:48:38.495Z,7.36
2023-01-13T00:51:08.350Z,7.39
2023-01-13T00:53:37.774Z,7.39
2023-01-13T00:56:07.972Z,7.37
2023-01-13T00:58:35.774Z,7.36
2023-01-13T01:01:11.443Z,7.32
2023-01-13T01:03:38.405Z,7.31
2023-01-13T01:06:12.464Z,7.28
2023-01-13T01:08:39.277Z,7.28
2023-01-13T01:11:11.814Z,7.25
2023-01-13T01:13:38.703Z,7.24
2023-01-13T01:16:10.906Z,7.25
2023-01-13T01:18:40.390Z,7.27
2023-01-13T01:21:08.021Z,7.29
2023-01-13T01:23:35.975Z,7.27
2023-01-13T01:26:07.973Z,7.24
2023-01-13T01:28:35.032Z,7.23
2023-01-13T01:31:07.108Z,7.25
2023-01-13T01:33:33.923Z,7.23
2023-01-13T01:36:01.654Z,7.22
2023-01-13T01:38:28.215Z,7.27
2023-01-13T01:40:54.889Z,7.27
2023-01-13T01:43:41.506Z,7.30
2023-01-13T01:46:10.944Z,7.29
2023-01-13T01:48:42.211Z,7.32
2023-01-13T01:51:12.007Z,7.36
2023-01-13T01:53:41.769Z,7.37
2023-01-13T01:56:09.783Z,7.36
2023-01-13T01:58:45.577Z,7.37
2023-01-13T02:01:14.262Z,7.37
2023-01-13T02:03:45.823Z,7.35
2023-01-13T02:06:13.940Z,7.35
2023-01-13T02:08:41.422Z,7.35
2023-01-13T02:11:30.828Z,7.33
2023-01-13T02:13:57.308Z,7.25
2023-01-13T02:16:24.807Z,7.24
2023-01-13T02:19:49.478Z,7.29
2023-01-13T02:22:31.887Z,7.31
2023-01-13T02:25:07.365Z,7.28
2023-01-13T02:27:52.712Z,7.28
2023-01-13T02:30:51.378Z,7.27
2023-01-13T02:33:24.777Z,7.33
2023-01-13T02:36:09.824Z,7.36
2023-01-13T02:39:12.498Z,7.36
2023-01-13T02:42:05.650Z,7.34
2023-01-13T02:44:57.036Z,7.36
2023-01-13T02:47:30.324Z,7.39
2023-01-13T02:50:02.009Z,7.41
2023-01-13T02:52:33.891Z,7.38
2023-01-13T02:55:08.924Z,7.37
2023-01-13T02:57:39.889Z,7.43
2023-01-13T03:00:07.656Z,7.44
2023-01-13T03:02:34.346Z,7.46
2023-01-13T03:05:01.111Z,7.40
2023-01-13T03:07:44.631Z,7.43
2023-01-13T03:10:33.564Z,7.40
2023-01-13T03:13:05.933Z,7.41
2023-01-13T03:15:54.245Z,7.42
2023-01-13T03:18:36.218Z,7.39
2023-01-13T03:21:24.489Z,7.38
2023-01-13T03:24:02.463Z,7.30
2023-01-13T03:26:35.026Z,7.36
2023-01-13T03:29:19.354Z,7.35
2023-01-13T03:32:23.327Z,7.34
2023-01-13T03:34:59.938Z,7.33
2023-01-13T03:37:33.024Z,7.29
2023-01-13T03:40:03.919Z,7.28
2023-01-13T03:42:34.038Z,7.33
2023-01-13T03:45:17.514Z,7.40
2023-01-13T03:47:48.893Z,7.43
2023-01-13T03:50:43.303Z,7.46
2023-01-13T03:53:19.617Z,7.48
2023-01-13T03:55:50.804Z,7.48
2023-01-13T03:58:32.909Z,7.45
2023-01-13T04:01:07.867Z,7.38
2023-01-13T04:03:43.892Z,7.43
2023-01-13T04:06:40.757Z,7.42
2023-01-13T04:09:36.785Z,7.47
2023-01-13T04:12:51.922Z,7.48
2023-01-13T04:15:24.983Z,7.48
2023-01-13T04:17:52.087Z,7.41
2023-01-13T04:20:18.742Z,7.40
2023-01-13T04:22:45.210Z,7.32
2023-01-13T04:25:12.239Z,7.36
2023-01-13T04:27:38.714Z,7.29
2023-01-13T04:30:06.765Z,7.28
2023-01-13T04:32:33.246Z,7.20
2023-01-13T04:34:59.688Z,7.23
2023-01-13T04:37:26.165Z,7.25
2023-01-13T04:39:52.610Z,7.21
2023-01-13T04:42:19.101Z,7.18
2023-01-13T04:44:45.647Z,7.14
2023-01-13T04:47:12.476Z,7.16
2023-01-13T04:49:38.926Z,7.17
2023-01-13T04:52:07.244Z,7.12
2023-01-13T04:54:33.889Z,7.08
2023-01-13T04:57:00.371Z,7.07
2023-01-13T04:59:26.926Z,7.07
2023-01-13T05:01:53.534Z,7.01
2023-01-13T05:04:20.013Z,6.98
2023-01-13T05:06:46.474Z,7.03
2023-01-13T05:09:13.453Z,7.07
2023-01-13T05:11:58.591Z,7.06
2023-01-13T05:14:43.442Z,7.05
2023-01-13T05:17:13.245Z,7.02
2023-01-13T05:19:40.771Z,6.98
2023-01-13T05:22:25.744Z,6.96
2023-01-13T05:25:10.522Z,6.93
2023-01-13T05:27:37.103Z,6.95
2023-01-13T05:30:04.526Z,6.95
2023-01-13T05:32:31.088Z,6.93
2023-01-13T05:34:57.751Z,6.94
2023-01-13T05:37:28.866Z,7.03
2023-01-13T05:40:13.897Z,7.09
2023-01-13T05:42:59.310Z,7.05
2023-01-13T05:45:26.069Z,7.01
2023-01-13T05:47:52.560Z,6.95
2023-01-13T05:50:19.095Z,6.98
2023-01-13T05:52:45.775Z,6.91
2023-01-13T05:55:12.399Z,6.86
2023-01-13T05:57:39.485Z,6.83
2023-01-13T06:00:06.442Z,6.85
2023-01-13T06:02:33.055Z,6.83
2023-01-13T06:05:01.852Z,6.86
2023-01-13T06:07:28.255Z,6.82
2023-01-13T06:09:54.812Z,6.73
2023-01-13T06:12:21.385Z,6.72
2023-01-13T06:14:48.807Z,6.73
2023-01-13T06:17:16.634Z,6.82
2023-01-13T06:19:43.088Z,6.81
2023-01-13T06:22:17.898Z,6.81
2023-01-13T06:24:49.654Z,6.82
2023-01-13T06:27:17.744Z,6.81
2023-01-13T06:29:44.164Z,6.88
2023-01-13T06:32:21.711Z,6.94
2023-01-13T06:34:54.325Z,6.97
2023-01-13T06:37:25.370Z,7.01
2023-01-13T06:39:58.132Z,7.04
2023-01-13T06:42:48.234Z,7.06
2023-01-13T06:45:14.717Z,7.11
2023-01-13T06:47:41.828Z,7.13
2023-01-13T06:50:08.976Z,7.19
2023-01-13T06:52:35.491Z,7.21
2023-01-13T06:55:02.941Z,7.22
2023-01-13T06:57:29.371Z,7.24
2023-01-13T06:59:56.895Z,7.26
2023-01-13T07:02:23.502Z,7.28
2023-01-13T07:04:50.133Z,7.29
2023-01-13T07:07:16.623Z,7.27
2023-01-13T07:09:43.081Z,7.23
2023-01-13T07:12:09.535Z,7.27
2023-01-13T07:14:54.878Z,7.27
2023-01-13T07:17:25.519Z,7.30
2023-01-13T07:19:52.655Z,7.31
2023-01-13T07:22:19.520Z,7.30
2023-01-13T07:24:46.031Z,7.34
2023-01-13T07:27:12.567Z,7.35
2023-01-13T07:29:39.720Z,7.38
2023-01-13T07:32:07.748Z,7.41
2023-01-13T07:34:34.301Z,7.41
2023-01-13T07:37:01.330Z,7.42
2023-01-13T07:39:27.974Z,7.44
2023-01-13T07:42:13.032Z,7.45
2023-01-13T07:44:39.491Z,7.46
2023-01-13T07:47:06.210Z,7.47
2023-01-13T07:49:33.198Z,7.49
2023-01-13T07:52:00.643Z,7.51
2023-01-13T07:54:39.611Z,7.52
2023-01-13T07:57:06.999Z,7.56
2023-01-13T07:59:33.664Z,7.59
2023-01-13T08:02:00.326Z,7.60
2023-01-13T08:04:27.054Z,7.59
2023-01-13T08:06:53.502Z,7.58
2023-01-13T08:09:21.046Z,7.62
2023-01-13T08:12:07.455Z,7.64
2023-01-13T08:14:34.006Z,7.66
2023-01-13T08:17:00.457Z,7.67
2023-01-13T08:19:26.977Z,7.65
2023-01-13T08:21:53.671Z,7.67
2023-01-13T08:24:20.065Z,7.71
2023-01-13T08:26:46.908Z,7.75
2023-01-13T08:29:15.169Z,7.73
2023-01-13T08:31:42.017Z,7.75
2023-01-13T08:34:08.781Z,7.77
2023-01-13T08:36:35.548Z,7.79
2023-01-13T08:39:05.213Z,7.78
2023-01-13T08:41:53.672Z,7.74
2023-01-13T08:44:20.525Z,7.68
2023-01-13T08:46:52.409Z,7.63
2023-01-13T08:49:21.253Z,7.58
2023-01-13T08:51:47.985Z,7.53
2023-01-13T08:54:24.239Z,7.51
2023-01-13T08:56:54.872Z,7.49
2023-01-13T08:59:23.593Z,7.47
2023-01-13T09:01:50.710Z,7.43
2023-01-13T09:04:20.759Z,7.39
2023-01-13T09:06:50.126Z,7.38
2023-01-13T09:09:16.888Z,7.40
2023-01-13T09:12:14.711Z,7.39
2023-01-13T09:14:53.243Z,7.40
2023-01-13T09:17:20.139Z,7.42
2023-01-13T09:19:53.333Z,7.39
2023-01-13T09:22:21.112Z,7.38
2023-01-13T09:24:52.343Z,7.41
2023-01-13T09:27:20.879Z,7.39
2023-01-13T09:29:50.254Z,7.37
2023-01-13T09:32:19.722Z,7.36
2023-01-13T09:35:01.520Z,7.34
2023-01-13T09:37:34.313Z,7.33
2023-01-13T09:40:04.399Z,7.36
2023-01-13T09:43:13.784Z,7.38
2023-01-13T09:45:53.314Z,7.41
2023-01-13T09:48:30.385Z,7.46
2023-01-13T09:50:59.926Z,7.46
2023-01-13T09:53:30.644Z,7.46
2023-01-13T09:55:57.301Z,7.46
2023-01-13T09:58:25.971Z,7.49
2023-01-13T10:01:14.263Z,7.52
2023-01-13T10:03:41.076Z,7.52
2023-01-13T10:06:21.742Z,7.58
2023-01-13T10:08:49.538Z,7.65
2023-01-13T10:11:40.379Z,7.69
2023-01-13T10:14:18.142Z,7.72
2023-01-13T10:16:51.355Z,7.69
2023-01-13T10:19:33.163Z,7.66
2023-01-13T10:22:39.196Z,7.66
2023-01-13T10:25:28.884Z,7.69
2023-01-13T10:28:04.301Z,7.68
2023-01-13T10:30:44.422Z,7.71
2023-01-13T10:37:06.435Z,7.77
2023-01-13T10:39:46.651Z,7.76
2023-01-13T10:46:48.804Z,7.80
2023-01-13T10:50:28.737Z,7.81
2023-01-13T10:53:02.090Z,7.84
2023-01-13T10:55:40.694Z,7.85
2023-01-13T10:58:23.450Z,7.85
2023-01-13T11:01:10.452Z,7.88
2023-01-13T11:03:41.707Z,7.88
2023-01-13T11:06:09.392Z,7.95
2023-01-13T11:08:45.271Z,8.01
2023-01-13T11:11:43.692Z,8.06
2023-01-13T11:14:44.411Z,8.13
2023-01-13T11:17:29.643Z,8.17
2023-01-13T11:20:12.168Z,8.21
2023-01-13T11:22:48.068Z,8.24
2023-01-13T11:25:24.164Z,8.26
2023-01-13T11:28:04.497Z,8.28
2023-01-13T11:31:46.763Z,8.30
2023-01-13T11:34:10.441Z,8.35
2023-01-13T11:36:58.604Z,8.39
2023-01-13T11:39:43.904Z,8.43
2023-01-13T11:43:02.760Z,8.46
2023-01-13T11:45:46.694Z,8.50
2023-01-13T11:48:19.720Z,8.54
2023-01-13T11:51:16.212Z,8.58
2023-01-13T11:53:57.862Z,8.63
2023-01-13T11:56:36.969Z,8.64
2023-01-13T11:59:31.933Z,8.68
2023-01-13T12:02:10.195Z,8.70
2023-01-13T12:04:47.143Z,8.69
2023-01-13T12:07:35.108Z,8.71
2023-01-13T12:10:19.833Z,8.71
2023-01-13T12:13:19.032Z,8.71
2023-01-13T12:16:13.614Z,8.70
2023-01-13T12:18:51.395Z,8.71
2023-01-13T12:21:21.831Z,8.69
2023-01-13T12:24:25.361Z,8.68
2023-01-13T12:27:01.573Z,8.66
2023-01-13T12:29:33.458Z,8.66
2023-01-13T12:32:03.732Z,8.67
2023-01-13T12:34:48.987Z,8.68
2023-01-13T12:37:26.350Z,8.69
2023-01-13T12:39:58.826Z,8.70
2023-01-13T12:42:58.622Z,8.71
2023-01-13T12:45:27.034Z,8.72
2023-01-13T12:47:54.209Z,8.76
2023-01-13T12:50:26.479Z,8.81
2023-01-13T12:53:01.501Z,8.87
2023-01-13T12:55:33.310Z,8.91
2023-01-13T12:58:05.873Z,8.98
2023-01-13T13:00:41.389Z,9.02
2023-01-13T13:03:10.673Z,9.03
2023-01-13T13:05:47.776Z,9.05
2023-01-13T13:08:37.740Z,9.05
2023-01-13T13:11:31.925Z,9.06
2023-01-13T13:14:11.908Z,9.03
2023-01-13T13:16:45.911Z,9.02
2023-01-13T13:19:18.588Z,9.01
2023-01-13T13:22:16.792Z,9.02
2023-01-13T13:25:03.395Z,9.02
2023-01-13T13:27:41.767Z,9.04
2023-01-13T13:30:17.047Z,9.06
2023-01-13T13:33:21.282Z,9.09
2023-01-13T13:35:53.957Z,9.17
2023-01-13T13:39:08.695Z,9.20
2023-01-13T13:41:55.726Z,9.22
2023-01-13T13:44:59.372Z,9.17
2023-01-13T13:47:26.039Z,9.17
2023-01-13T13:49:54.735Z,9.15
2023-01-13T13:52:21.261Z,9.13
2023-01-13T13:54:51.852Z,9.10
2023-01-13T13:57:22.579Z,9.08
2023-01-13T13:59:58.471Z,9.04
2023-01-13T14:02:32.178Z,9.03
2023-01-13T14:05:25.343Z,9.02
2023-01-13T14:07:59.340Z,9.00
2023-01-13T14:10:46.544Z,9.00
2023-01-13T14:13:30.041Z,9.00
2023-01-13T14:15:59.483Z,8.95
2023-01-13T14:18:28.014Z,8.95
2023-01-13T14:21:19.338Z,8.94
2023-01-13T14:24:01.952Z,8.91
2023-01-13T14:26:32.094Z,8.90
2023-01-13T14:29:01.384Z,8.89
2023-01-13T14:31:28.775Z,8.87
2023-01-13T14:33:58.524Z,8.83
2023-01-13T14:36:38.708Z,8.81
2023-01-13T14:39:05.537Z,8.80
2023-01-13T14:41:48.173Z,8.79
2023-01-13T14:44:25.089Z,8.76
2023-01-13T14:46:55.055Z,8.76
2023-01-13T14:49:30.347Z,8.73
2023-01-13T14:52:24.581Z,8.66
2023-01-13T14:55:23.421Z,8.57
2023-01-13T14:57:50.162Z,8.58
2023-01-13T15:00:16.787Z,8.62
2023-01-13T15:02:54.043Z,8.63
2023-01-13T15:05:20.616Z,8.58
2023-01-13T15:07:59.679Z,8.59
2023-01-13T15:10:46.484Z,8.58
2023-01-13T15:13:39.383Z,8.52
2023-01-13T15:16:22.030Z,8.51
2023-01-13T15:18:48.549Z,8.49
2023-01-13T15:21:18.472Z,8.48
2023-01-13T15:23:47.230Z,8.49
2023-01-13T15:26:25.776Z,8.46
2023-01-13T15:28:54.275Z,8.45
2023-01-13T15:31:22.417Z,8.45
2023-01-13T15:33:49.054Z,8.44
2023-01-13T15:36:23.574Z,8.44
2023-01-13T15:38:50.746Z,8.44
2023-01-13T15:41:17.425Z,8.40
2023-01-13T15:44:02.673Z,8.34
2023-01-13T15:46:41.172Z,8.31
2023-01-13T15:49:28.007Z,8.26
2023-01-13T15:51:54.676Z,8.27
2023-01-13T15:54:24.551Z,8.27
2023-01-13T15:56:51.977Z,8.29
2023-01-13T15:59:22.249Z,8.22
2023-01-13T16:01:48.740Z,8.21
2023-01-13T16:04:15.289Z,8.21
2023-01-13T16:06:41.777Z,8.21
2023-01-13T16:09:11.049Z,8.22
2023-01-13T16:11:37.671Z,8.23
2023-01-13T16:14:04.092Z,8.26
2023-01-13T16:16:30.862Z,8.24
2023-01-13T16:18:57.408Z,8.26
2023-01-13T16:21:24.218Z,8.25
2023-01-13T16:23:51.850Z,8.24
2023-01-13T16:26:24.431Z,8.22
2023-01-13T16:28:53.118Z,8.23
2023-01-13T16:31:25.082Z,8.21
2023-01-13T16:33:51.723Z,8.18
2023-01-13T16:36:20.196Z,8.10
2023-01-13T16:38:48.169Z,8.02
2023-01-13T16:41:14.883Z,7.99
2023-01-13T16:43:41.468Z,8.02
2023-01-13T16:46:18.851Z,8.04
2023-01-13T16:48:45.952Z,8.08
2023-01-13T16:51:12.407Z,8.08
2023-01-13T16:53:38.849Z,7.96
2023-01-13T16:56:16.679Z,7.77
2023-01-13T16:58:43.053Z,7.65
2023-01-13T17:01:24.825Z,7.50
2023-01-13T17:03:51.984Z,7.38
2023-01-13T17:06:22.076Z,7.28
2023-01-13T17:08:48.553Z,7.20
2023-01-13T17:11:15.041Z,7.11
2023-01-13T17:13:42.575Z,7.01
2023-01-13T17:16:19.251Z,6.93
2023-01-13T17:18:47.197Z,6.88
2023-01-13T17:21:15.347Z,6.82
2023-01-13T17:23:41.744Z,6.76
2023-01-13T17:26:21.579Z,6.72
2023-01-13T17:28:47.937Z,6.76
2023-01-13T17:31:14.326Z,6.79
2023-01-13T17:33:40.763Z,6.78
2023-01-13T17:36:07.322Z,6.75
2023-01-13T17:38:33.733Z,6.75
2023-01-13T17:41:04.237Z,6.75
2023-01-13T17:43:31.703Z,6.73
2023-01-13T17:45:58.824Z,6.70
2023-01-13T17:48:25.972Z,6.62
2023-01-13T17:50:53.306Z,6.56
2023-01-13T17:53:20.311Z,6.52
2023-01-13T17:55:51.635Z,6.51
2023-01-13T17:58:18.416Z,6.50
2023-01-13T18:00:44.944Z,6.50
2023-01-13T18:03:11.766Z,6.45
2023-01-13T18:05:39.139Z,6.39
2023-01-13T18:08:05.839Z,6.37
2023-01-13T18:10:33.486Z,6.36
2023-01-13T18:13:00.233Z,6.37
2023-01-13T18:15:26.690Z,6.35
2023-01-13T18:17:53.104Z,6.33
2023-01-13T18:20:38.050Z,6.29
2023-01-13T18:23:23.375Z,6.24
2023-01-13T18:26:08.345Z,6.22
2023-01-13T18:28:34.709Z,6.19
2023-01-13T18:31:01.109Z,6.17
2023-01-13T18:33:27.512Z,6.14
2023-01-13T18:35:53.963Z,6.11
2023-01-13T18:38:24.208Z,6.14
2023-01-13T18:40:50.647Z,6.11
2023-01-13T18:43:17.076Z,6.14
2023-01-13T18:45:43.539Z,6.20
2023-01-13T18:48:10.427Z,6.31
2023-01-13T18:50:36.866Z,6.34
2023-01-13T18:53:03.420Z,6.28
2023-01-13T18:55:29.964Z,6.26
2023-01-13T18:57:57.057Z,6.33
2023-01-13T19:00:24.653Z,6.42
2023-01-13T19:05:35.606Z,6.47
2023-01-13T19:08:02.636Z,6.53
2023-01-13T19:10:32.082Z,6.55
2023-01-13T19:12:58.514Z,6.58
2023-01-13T19:15:24.900Z,6.61
2023-01-13T19:17:52.544Z,6.65
2023-01-13T19:20:20.071Z,6.64
2023-01-13T19:22:53.668Z,6.65
2023-01-13T19:25:20.071Z,6.62
2023-01-13T19:27:46.530Z,6.62
2023-01-13T19:30:13.596Z,6.63
2023-01-13T19:32:40.161Z,6.63
2023-01-13T19:35:07.242Z,6.67
2023-01-13T19:37:36.611Z,6.63
2023-01-13T19:40:09.065Z,6.57
2023-01-13T19:42:54.167Z,6.56
2023-01-13T19:45:26.462Z,6.58
2023-01-13T19:47:52.943Z,6.63
2023-01-13T19:50:19.569Z,6.70
2023-01-13T19:52:45.943Z,6.74
2023-01-13T19:55:12.679Z,6.80
2023-01-13T19:57:40.108Z,6.84
2023-01-13T20:00:08.334Z,6.91
2023-01-13T20:02:36.594Z,6.93
2023-01-13T20:05:05.809Z,6.97
2023-01-13T20:07:33.606Z,6.94
2023-01-13T20:10:01.497Z,6.94
2023-01-13T20:12:29.071Z,7.00
2023-01-13T20:14:55.776Z,6.99
2023-01-13T20:17:22.929Z,7.07
2023-01-13T20:19:49.415Z,7.13
2023-01-13T20:22:15.860Z,7.12
2023-01-13T20:24:42.778Z,7.08
2023-01-13T20:27:09.631Z,7.12
2023-01-13T20:29:36.000Z,7.10
2023-01-13T20:32:02.716Z,7.06
2023-01-13T20:34:29.739Z,7.04
2023-01-13T20:36:56.449Z,7.01
2023-01-13T20:39:26.230Z,6.97
2023-01-13T20:42:11.375Z,6.95
2023-01-13T20:44:37.743Z,6.94
2023-01-13T20:47:04.548Z,6.94
2023-01-13T20:49:31.182Z,7.01
2023-01-13T20:51:58.942Z,7.03
2023-01-13T20:54:25.919Z,7.03
2023-01-13T20:56:53.286Z,6.99
2023-01-13T20:59:19.879Z,6.93
2023-01-13T21:01:46.529Z,6.87
2023-01-13T21:04:12.904Z,6.75
2023-01-13T21:06:39.315Z,6.66
2023-01-13T21:09:05.715Z,6.61
2023-01-13T21:11:50.871Z,6.59
2023-01-13T21:14:39.767Z,6.52
2023-01-13T21:17:07.429Z,6.62
2023-01-13T21:19:33.920Z,6.61
2023-01-13T21:22:00.277Z,6.57
2023-01-13T21:24:26.949Z,6.53
2023-01-13T21:26:56.942Z,6.52
2023-01-13T21:29:23.350Z,6.65
2023-01-13T21:31:49.885Z,6.71
2023-01-13T21:34:17.691Z,6.74
2023-01-13T21:36:44.094Z,6.62
2023-01-13T21:39:11.046Z,6.54
2023-01-13T21:41:55.739Z,6.50
2023-01-13T21:44:40.660Z,6.48
2023-01-13T21:47:36.208Z,6.50
2023-01-13T21:50:04.608Z,6.53
2023-01-13T21:52:31.005Z,6.52
2023-01-13T21:55:16.126Z,6.51
2023-01-13T21:57:49.941Z,6.51
2023-01-13T22:00:19.253Z,6.53
2023-01-13T22:02:46.536Z,6.71
2023-01-13T22:05:15.352Z,6.74
2023-01-13T22:07:41.827Z,6.71
2023-01-13T22:10:12.490Z,6.70
2023-01-13T22:12:39.374Z,6.71
2023-01-13T22:15:07.195Z,6.72
2023-01-13T22:17:34.092Z,6.75
2023-01-13T22:20:01.302Z,6.83
2023-01-13T22:22:29.070Z,6.91
2023-01-13T22:24:55.638Z,6.93
2023-01-13T22:27:24.777Z,6.91
2023-01-13T22:29:52.643Z,6.88
2023-01-13T22:32:20.338Z,6.84
2023-01-13T22:34:47.775Z,6.78
2023-01-13T22:37:14.309Z,6.76
2023-01-13T22:39:40.865Z,6.75
2023-01-13T22:42:07.516Z,6.76
2023-01-13T22:44:34.019Z,6.79
2023-01-13T22:47:00.527Z,6.87
2023-01-13T22:49:27.022Z,6.87
2023-01-13T22:51:53.403Z,6.81
2023-01-13T22:54:19.994Z,6.84
2023-01-13T22:56:46.388Z,6.80
2023-01-13T22:59:14.411Z,6.82
2023-01-13T23:01:42.051Z,6.78
2023-01-13T23:04:12.843Z,6.75
2023-01-13T23:06:39.867Z,6.71
2023-01-13T23:09:06.839Z,6.71
2023-01-13T23:11:33.865Z,6.70
2023-01-13T23:14:05.590Z,6.71
2023-01-13T23:16:35.535Z,6.68
2023-01-13T23:19:02.529Z,6.69
2023-01-13T23:21:32.013Z,6.68
2023-01-13T23:24:00.272Z,6.68
2023-01-13T23:26:27.475Z,6.72
2023-01-13T23:28:58.168Z,6.72
2023-01-13T23:31:24.544Z,6.75
2023-01-13T23:33:50.919Z,6.76
2023-01-13T23:36:21.558Z,6.78
2023-01-13T23:38:48.374Z,6.84
2023-01-13T23:41:24.619Z,6.89
2023-01-13T23:44:00.212Z,6.90
2023-01-13T23:46:29.218Z,6.89
2023-01-13T23:48:56.735Z,6.89
2023-01-13T23:51:23.481Z,6.89
2023-01-13T23:53:52.007Z,6.90
2023-01-13T23:56:21.174Z,6.89
2023-01-13T23:58:48.748Z,6.89
